Time;durP1;ratioP1;P1;durP2;ratioP2;P2;SDS_P1;SDS_P2;PMS_P1;PMS_P2;Temp;Humidity;BMP_temperature;BMP_pressure;BME280_temperature;BME280_humidity;BME280_pressure;Samples;Min_cycle;Max_cycle;Signal;HPM_P1;HPM_P2
2023/01/27 00:00:48;;;;;;;14.80;12.53;;;;;;;3.21;100.00;98802.91;4973618;28;20437;-68
2023/01/27 00:03:15;;;;;;;15.23;11.73;;;;;;;3.29;100.00;98796.81;4973558;28;20501;-68
2023/01/27 00:05:42;;;;;;;12.93;11.23;;;;;;;3.36;100.00;98805.69;4973512;28;20503;-67
2023/01/27 00:08:08;;;;;;;13.03;11.30;;;;;;;3.34;100.00;98813.72;4973374;28;20505;-68
2023/01/27 00:10:35;;;;;;;17.57;12.00;;;;;;;3.18;100.00;98819.00;4973541;28;20438;-67
2023/01/27 00:15:47;;;;;;;17.60;13.03;;;;;;;2.86;100.00;98819.00;4992605;28;20471;-67
2023/01/27 00:18:14;;;;;;;14.13;11.57;;;;;;;2.91;100.00;98811.50;4992887;28;20433;-67
2023/01/27 00:26:13;;;;;;;14.90;12.50;;;;;;;2.92;100.00;98786.88;4973344;28;20418;-67
2023/01/27 00:28:41;;;;;;;12.23;10.70;;;;;;;3.03;100.00;98783.09;4976805;28;20457;-67
2023/01/27 00:34:00;;;;;;;15.73;12.50;;;;;;;3.06;100.00;98778.34;4992421;28;20551;-67
2023/01/27 00:36:27;;;;;;;13.10;10.90;;;;;;;3.13;100.00;98774.06;4993023;28;20438;-68
2023/01/27 00:38:54;;;;;;;15.17;11.87;;;;;;;3.13;100.00;98775.88;4991370;28;20512;-67
2023/01/27 00:41:22;;;;;;;15.63;12.70;;;;;;;3.17;100.00;98788.50;4992676;28;20449;-67
2023/01/27 00:43:49;;;;;;;15.10;11.33;;;;;;;3.20;100.00;98785.53;4992445;28;20454;-68
2023/01/27 00:46:19;;;;;;;12.87;11.57;;;;;;;3.14;100.00;98783.56;4994217;28;20433;-68
2023/01/27 00:48:46;;;;;;;13.53;11.37;;;;;;;3.18;100.00;98776.22;4990208;28;20896;-68
2023/01/27 00:51:13;;;;;;;15.07;11.87;;;;;;;3.16;100.00;98775.53;4977026;28;20533;-67
2023/01/27 00:53:40;;;;;;;14.73;11.33;;;;;;;3.14;100.00;98780.16;4976776;28;20540;-68
2023/01/27 00:56:07;;;;;;;13.57;10.97;;;;;;;3.20;100.00;98780.31;4976608;28;20938;-68
2023/01/27 00:58:34;;;;;;;12.93;11.13;;;;;;;3.29;100.00;98755.69;4976431;28;20950;-67
2023/01/27 01:01:03;;;;;;;12.43;10.67;;;;;;;3.36;100.00;98759.28;4976866;28;20521;-67
2023/01/27 01:03:33;;;;;;;14.10;11.97;;;;;;;3.40;100.00;98749.25;4976709;28;20454;-67
2023/01/27 01:06:00;;;;;;;12.93;11.53;;;;;;;3.47;100.00;98735.25;4976755;28;20442;-68
2023/01/27 01:08:27;;;;;;;12.57;11.23;;;;;;;3.50;100.00;98716.56;4976549;28;20506;-67
2023/01/27 01:10:54;;;;;;;13.90;11.43;;;;;;;3.58;100.00;98716.53;4976353;28;20868;-68
2023/01/27 01:13:21;;;;;;;17.17;13.47;;;;;;;3.61;100.00;98704.88;4976416;28;20490;-68
2023/01/27 01:15:48;;;;;;;17.83;13.00;;;;;;;3.58;100.00;98699.94;4976171;28;20484;-67
2023/01/27 01:18:16;;;;;;;15.07;11.50;;;;;;;3.55;99.72;98706.34;4976198;28;20501;-68
2023/01/27 01:20:45;;;;;;;14.70;12.60;;;;;;;3.52;99.49;98756.56;4979559;28;20445;-68
2023/01/27 01:23:13;;;;;;;11.93;10.67;;;;;;;3.38;99.04;98778.28;4995510;28;20476;-66
2023/01/27 01:25:41;;;;;;;15.90;12.17;;;;;;;3.16;100.00;98775.53;4995748;28;20449;-66
2023/01/27 01:28:08;;;;;;;15.33;11.97;;;;;;;3.07;100.00;98779.97;4995761;28;20448;-67
2023/01/27 01:30:36;;;;;;;14.97;11.90;;;;;;;2.91;100.00;98774.78;4986077;28;20449;-67
2023/01/27 01:33:03;;;;;;;14.93;12.10;;;;;;;3.02;100.00;98766.53;4995266;28;20465;-67
2023/01/27 01:35:30;;;;;;;15.33;11.80;;;;;;;3.08;100.00;98755.41;4995257;28;20450;-67
2023/01/27 01:37:58;;;;;;;17.10;13.33;;;;;;;3.19;100.00;98751.59;4994573;28;20453;-67
2023/01/27 01:40:25;;;;;;;18.67;13.13;;;;;;;3.30;100.00;98744.19;4993455;28;21035;-67
2023/01/27 01:42:57;;;;;;;14.20;11.30;;;;;;;3.41;100.00;98735.97;4995188;28;20441;-67
2023/01/27 01:45:50;;;;;;;13.37;10.93;;;;;;;3.39;100.00;98743.16;4995076;28;20449;-67
2023/01/27 01:48:25;;;;;;;10.97;9.80;;;;;;;3.37;100.00;98739.91;4995121;28;20442;-67
2023/01/27 01:50:56;;;;;;;10.93;9.73;;;;;;;3.30;100.00;98736.31;4995384;28;20434;-68
2023/01/27 01:53:31;;;;;;;11.30;10.13;;;;;;;3.28;100.00;98721.72;4993909;28;20466;-68
2023/01/27 01:56:05;;;;;;;12.87;10.37;;;;;;;3.37;100.00;98713.66;4995251;28;20433;-68
2023/01/27 01:58:33;;;;;;;11.43;9.30;;;;;;;3.33;100.00;98712.38;4995078;28;20516;-68
2023/01/27 02:01:00;;;;;;;11.80;9.87;;;;;;;3.21;100.00;98705.84;4988836;28;20824;-68
2023/01/27 02:03:29;;;;;;;13.47;11.03;;;;;;;3.13;100.00;98715.53;4975724;28;20571;-68
2023/01/27 02:05:56;;;;;;;10.97;9.87;;;;;;;3.02;100.00;98716.69;4975570;28;20497;-67
2023/01/27 02:08:29;;;;;;;13.43;10.73;;;;;;;2.92;100.00;98716.09;4975589;28;20435;-67
2023/01/27 02:10:56;;;;;;;11.97;10.27;;;;;;;2.84;100.00;98702.97;4988384;28;20941;-68
2023/01/27 02:13:23;;;;;;;12.10;10.67;;;;;;;2.79;100.00;98686.94;4994813;28;20992;-68
2023/01/27 02:15:53;;;;;;;11.87;10.67;;;;;;;2.91;100.00;98690.03;4994757;28;20850;-68
2023/01/27 02:18:20;;;;;;;12.67;10.63;;;;;;;3.03;100.00;98684.25;4994575;28;20984;-68
2023/01/27 02:20:49;;;;;;;14.10;11.07;;;;;;;3.13;100.00;98679.63;4994701;28;20445;-68
2023/01/27 02:23:27;;;;;;;13.13;11.80;;;;;;;3.26;100.00;98672.03;4994742;28;20445;-67
2023/01/27 02:25:59;;;;;;;12.53;10.73;;;;;;;3.35;100.00;98663.13;4994763;28;20441;-67
2023/01/27 02:28:28;;;;;;;13.60;11.07;;;;;;;3.41;100.00;98646.72;4978385;28;20950;-68
2023/01/27 02:30:55;;;;;;;14.27;12.30;;;;;;;3.46;100.00;98648.81;4985104;28;20450;-67
2023/01/27 02:33:21;;;;;;;14.47;11.77;;;;;;;3.55;100.00;98648.59;4994169;28;20446;-68
2023/01/27 02:35:56;;;;;;;12.50;11.30;;;;;;;3.58;100.00;98643.03;4978805;28;20517;-68
2023/01/27 02:38:24;;;;;;;15.90;11.53;;;;;;;3.66;100.00;98666.59;4955542;28;20435;-67
2023/01/27 02:40:54;;;;;;;12.90;11.53;;;;;;;3.62;100.00;98670.56;4955639;28;20470;-67
2023/01/27 02:43:22;;;;;;;13.97;11.50;;;;;;;3.58;100.00;98650.91;4955340;28;20877;-67
2023/01/27 02:45:49;;;;;;;13.00;11.07;;;;;;;3.66;100.00;98642.97;4955561;28;20444;-67
2023/01/27 02:48:16;;;;;;;16.63;11.90;;;;;;;3.74;100.00;98653.44;4969365;28;20962;-67
2023/01/27 02:50:42;;;;;;;15.23;12.00;;;;;;;3.72;99.93;98650.13;4974748;28;20443;-67
2023/01/27 02:53:09;;;;;;;15.30;12.00;;;;;;;3.70;99.88;98639.00;4975175;28;20439;-68
2023/01/27 02:55:36;;;;;;;13.70;11.43;;;;;;;3.79;99.54;98647.63;4974767;28;20446;-67
2023/01/27 02:58:03;;;;;;;14.03;11.40;;;;;;;3.71;99.20;98645.88;4974834;28;20438;-67
2023/01/27 03:00:31;;;;;;;13.93;11.80;;;;;;;3.82;99.36;98645.50;4974249;28;20526;-67
2023/01/27 03:02:58;;;;;;;14.77;12.43;;;;;;;3.88;99.55;98634.28;4979896;28;20496;-67
2023/01/27 03:05:25;;;;;;;14.00;11.10;;;;;;;3.89;99.16;98640.38;4993625;28;20882;-68
2023/01/27 03:07:51;;;;;;;12.63;11.30;;;;;;;3.84;98.62;98632.19;4993903;28;20473;-67
2023/01/27 03:10:18;;;;;;;13.23;11.70;;;;;;;3.91;98.70;98623.44;4993357;28;20441;-67
2023/01/27 03:12:45;;;;;;;12.97;11.07;;;;;;;3.94;98.40;98622.25;4993510;28;20441;-67
2023/01/27 03:18:15;;;;;;;13.47;11.33;;;;;;;3.90;97.65;98616.56;4993806;28;20413;-68
2023/01/27 03:20:43;;;;;;;11.97;10.70;;;;;;;3.92;97.78;98613.75;4991692;28;20441;-67
2023/01/27 03:23:11;;;;;;;10.90;9.70;;;;;;;3.90;97.56;98627.06;4993295;28;21019;-67
2023/01/27 03:25:41;;;;;;;12.83;11.20;;;;;;;3.87;97.46;98643.16;4993517;28;20504;-68
2023/01/27 03:28:08;;;;;;;16.27;12.40;;;;;;;3.76;97.88;98658.50;4993666;28;20508;-68
2023/01/27 03:30:35;;;;;;;13.40;11.27;;;;;;;3.65;97.99;98651.84;4993356;28;20500;-67
2023/01/27 03:33:05;;;;;;;12.70;10.27;;;;;;;3.70;98.68;98656.56;4993114;28;20863;-67
2023/01/27 03:35:37;;;;;;;12.87;10.77;;;;;;;3.71;98.73;98653.75;4993492;28;20481;-67
2023/01/27 03:46:18;;;;;;;12.03;9.63;;;;;;;3.61;100.00;98642.69;4973609;28;20441;-68
2023/01/27 03:48:49;;;;;;;9.90;8.90;;;;;;;3.67;99.59;98641.97;4973924;28;20497;-67
2023/01/27 03:51:16;;;;;;;9.60;8.33;;;;;;;3.73;99.84;98641.28;4973418;28;21046;-67
2023/01/27 03:53:43;;;;;;;8.87;8.00;;;;;;;3.79;100.00;98639.75;4973193;28;20905;-67
2023/01/27 03:56:11;;;;;;;9.03;8.13;;;;;;;3.82;100.00;98640.25;4973285;28;20950;-67
2023/01/27 03:58:38;;;;;;;9.23;8.33;;;;;;;3.86;100.00;98636.28;4973812;28;20454;-67
2023/01/27 04:01:06;;;;;;;9.20;8.40;;;;;;;3.86;99.78;98636.28;4973221;28;20446;-67
2023/01/27 04:09:08;;;;;;;8.60;7.80;;;;;;;3.84;99.32;98616.44;4973334;28;20829;-67
2023/01/27 04:14:19;;;;;;;10.23;9.33;;;;;;;3.79;98.62;98614.31;4973321;28;20525;-67
2023/01/27 04:16:47;;;;;;;10.37;9.37;;;;;;;3.63;98.53;98609.19;4973351;28;21004;-67
2023/01/27 04:19:14;;;;;;;9.77;8.77;;;;;;;3.56;99.97;98612.69;4973099;28;20438;-67
2023/01/27 04:21:42;;;;;;;12.67;10.00;;;;;;;3.55;99.78;98614.47;4972921;28;20972;-67
2023/01/27 04:24:16;;;;;;;12.67;10.17;;;;;;;3.56;100.00;98616.09;4973108;28;20442;-66
2023/01/27 04:26:44;;;;;;;11.17;10.07;;;;;;;3.63;100.00;98603.13;4973706;28;20439;-67
2023/01/27 04:29:12;;;;;;;11.60;10.40;;;;;;;3.62;100.00;98611.97;4973381;28;20513;-66
2023/01/27 04:31:39;;;;;;;10.63;9.53;;;;;;;3.64;100.00;98605.56;4986831;28;20540;-67
2023/01/27 04:34:06;;;;;;;11.00;9.90;;;;;;;3.71;100.00;98589.91;4973202;28;20480;-67
2023/01/27 04:36:32;;;;;;;11.37;10.27;;;;;;;3.78;100.00;98599.56;4973107;28;20454;-67
2023/01/27 04:39:00;;;;;;;10.93;9.43;;;;;;;3.83;100.00;98591.97;4973285;28;20496;-67
2023/01/27 04:41:27;;;;;;;10.83;9.73;;;;;;;3.84;100.00;98596.22;4973199;28;20446;-67
2023/01/27 04:43:54;;;;;;;10.40;9.30;;;;;;;3.86;100.00;98593.44;4973305;28;20438;-66
2023/01/27 04:46:21;;;;;;;11.37;10.20;;;;;;;3.85;99.30;98602.31;4972750;28;20505;-67
2023/01/27 04:48:47;;;;;;;14.90;11.07;;;;;;;3.89;99.09;98599.13;4972931;28;20493;-67
2023/01/27 04:51:14;;;;;;;27.53;20.27;;;;;;;3.83;98.55;98599.84;4976464;28;20842;-67
2023/01/27 04:53:42;;;;;;;28.53;20.03;;;;;;;3.82;99.03;98602.66;4973108;28;20450;-67
2023/01/27 04:56:21;;;;;;;36.63;24.20;;;;;;;3.91;99.28;98602.41;4972915;28;20490;-67
2023/01/27 04:58:48;;;;;;;28.30;17.53;;;;;;;3.93;99.06;98599.63;4973066;28;20219;-67
2023/01/27 05:01:14;;;;;;;24.00;15.93;;;;;;;3.94;99.14;98602.06;4972981;28;20451;-67
2023/01/27 05:03:41;;;;;;;25.90;16.57;;;;;;;4.01;99.14;98596.94;4972675;28;20446;-67
2023/01/27 05:06:09;;;;;;;19.90;16.27;;;;;;;3.94;98.82;98596.81;4972653;28;20820;-67
2023/01/27 05:08:35;;;;;;;21.07;16.70;;;;;;;3.99;98.88;98599.72;4973119;28;20442;-67
2023/01/27 05:11:02;;;;;;;18.53;15.27;;;;;;;4.04;98.46;98618.41;4972877;28;20447;-67
2023/01/27 05:13:30;;;;;;;21.70;18.53;;;;;;;4.04;98.29;98615.78;4972956;28;20438;-68
2023/01/27 05:16:05;;;;;;;20.87;16.57;;;;;;;3.96;97.45;98620.28;4972505;28;20859;-68
2023/01/27 05:18:31;;;;;;;24.00;17.80;;;;;;;3.96;97.75;98623.72;4973237;28;20632;-67
2023/01/27 05:20:59;;;;;;;29.27;20.90;;;;;;;4.02;97.99;98638.78;4972822;28;20503;-67
2023/01/27 05:23:37;;;;;;;22.00;16.03;;;;;;;4.05;98.27;98635.00;4977550;28;20460;-68
2023/01/27 05:26:06;;;;;;;20.07;15.60;;;;;;;4.10;97.86;98644.00;4973617;28;20958;-68
2023/01/27 05:28:35;;;;;;;32.00;22.27;;;;;;;4.10;97.99;98644.00;4972314;28;20973;-67
2023/01/27 05:31:07;;;;;;;23.53;18.43;;;;;;;4.11;98.34;98635.09;4983309;28;20445;-67
2023/01/27 05:33:34;;;;;;;15.63;13.33;;;;;;;4.17;98.77;98626.50;4994981;28;20492;-67
2023/01/27 05:36:03;;;;;;;16.20;11.93;;;;;;;4.22;98.00;98632.06;4994936;28;20489;-67
2023/01/27 05:38:30;;;;;;;14.07;12.07;;;;;;;4.24;97.74;98632.69;4995082;28;20516;-67
2023/01/27 05:40:59;;;;;;;12.80;10.33;;;;;;;4.23;97.22;98641.59;4994201;28;20512;-67
2023/01/27 05:43:26;;;;;;;23.07;16.57;;;;;;;4.28;97.36;98641.88;4995231;28;20195;-67
2023/01/27 05:46:02;;;;;;;15.90;11.77;;;;;;;4.33;97.44;98644.78;4994929;28;20511;-67
2023/01/27 05:48:28;;;;;;;12.97;10.97;;;;;;;4.39;96.89;98638.81;4992228;28;20529;-67
2023/01/27 05:50:56;;;;;;;12.30;11.10;;;;;;;4.44;96.81;98640.91;4975918;28;20450;-67
2023/01/27 05:53:23;;;;;;;11.57;10.20;;;;;;;4.37;96.19;98646.06;4975322;28;20628;-66
2023/01/27 05:55:50;;;;;;;10.50;9.40;;;;;;;4.42;96.57;98642.91;4975689;28;20480;-66
2023/01/27 05:58:17;;;;;;;10.50;8.90;;;;;;;4.46;96.55;98639.72;4985396;28;20442;-66
2023/01/27 06:00:44;;;;;;;10.63;9.33;;;;;;;4.45;96.04;98640.72;4994707;28;20450;-66
2023/01/27 06:03:12;;;;;;;10.53;9.43;;;;;;;4.42;95.48;98635.81;4994878;28;20449;-66
2023/01/27 06:05:39;;;;;;;10.30;9.37;;;;;;;4.23;95.65;98638.97;4994621;28;20210;-65
2023/01/27 06:08:05;;;;;;;11.10;10.10;;;;;;;4.14;96.14;98632.13;4994647;28;20195;-66
2023/01/27 06:10:36;;;;;;;10.73;9.73;;;;;;;4.07;96.71;98622.50;4994603;28;20445;-66
2023/01/27 06:13:03;;;;;;;10.47;9.67;;;;;;;4.07;98.02;98618.06;4989927;28;20806;-67
2023/01/27 06:15:30;;;;;;;14.23;13.00;;;;;;;4.05;97.92;98609.53;4985021;28;20507;-67
2023/01/27 06:17:56;;;;;;;17.27;15.53;;;;;;;4.12;98.98;98609.63;4985324;28;20438;-67
2023/01/27 06:20:25;;;;;;;19.13;17.00;;;;;;;4.16;98.48;98611.75;4983705;28;20505;-67
2023/01/27 06:22:52;;;;;;;17.73;15.83;;;;;;;4.22;98.67;98618.09;4984828;28;20218;-66
2023/01/27 06:25:18;;;;;;;16.87;15.10;;;;;;;4.25;98.33;98628.28;4984012;28;20437;-67
2023/01/27 06:27:45;;;;;;;28.90;20.87;;;;;;;4.33;97.88;98634.25;4985310;28;20430;-67
2023/01/27 06:30:12;;;;;;;32.27;23.70;;;;;;;4.36;97.70;98638.34;4987581;28;20444;-67
2023/01/27 06:32:39;;;;;;;35.80;24.00;;;;;;;4.45;97.80;98643.34;4981699;28;20513;-67
2023/01/27 06:35:07;;;;;;;26.27;21.13;;;;;;;4.50;96.87;98646.25;4980159;28;20529;-67
2023/01/27 06:37:35;;;;;;;32.37;22.63;;;;;;;4.47;97.51;98630.88;4974588;28;21012;-67
2023/01/27 06:40:02;;;;;;;28.27;20.97;;;;;;;4.48;98.24;98637.75;4974431;28;20470;-67
2023/01/27 06:42:29;;;;;;;27.53;20.63;;;;;;;4.51;98.01;98634.78;4974323;28;20195;-66
2023/01/27 06:44:56;;;;;;;28.43;19.40;;;;;;;4.53;97.93;98645.91;4973986;28;20282;-66
2023/01/27 06:47:22;;;;;;;26.23;16.37;;;;;;;4.41;97.42;98647.34;4969667;28;20993;-66
2023/01/27 06:49:49;;;;;;;24.10;18.27;;;;;;;4.35;97.96;98634.91;4973652;28;20249;-67
2023/01/27 06:52:16;;;;;;;30.00;18.63;;;;;;;4.38;99.24;98629.28;4973080;28;20571;-66
2023/01/27 06:54:44;;;;;;;30.83;20.33;;;;;;;4.49;99.51;98623.59;4974159;28;20274;-66
2023/01/27 06:57:10;;;;;;;28.67;20.57;;;;;;;4.56;100.00;98626.31;4973164;28;20438;-65
2023/01/27 06:59:37;;;;;;;27.27;22.30;;;;;;;4.56;99.01;98624.53;4973207;28;20254;-65
2023/01/27 07:02:04;;;;;;;19.87;15.93;;;;;;;4.58;98.36;98627.78;4973183;28;20533;-65
2023/01/27 07:04:30;;;;;;;22.97;15.53;;;;;;;4.51;98.48;98616.38;4974313;28;20988;-65
2023/01/27 07:06:57;;;;;;;23.63;16.53;;;;;;;4.49;97.99;98628.84;4985796;28;20195;-65
2023/01/27 07:09:24;;;;;;;27.43;20.13;;;;;;;4.50;99.19;98619.97;4993638;28;20229;-64
2023/01/27 07:11:52;;;;;;;54.77;28.50;;;;;;;4.54;98.54;98631.75;4993643;28;20632;-66
2023/01/27 07:14:18;;;;;;;63.20;31.50;;;;;;;4.46;98.04;98634.47;4988245;28;20249;-64
2023/01/27 07:16:45;;;;;;;52.20;27.97;;;;;;;4.50;98.61;98633.13;4973914;28;20706;-65
2023/01/27 07:19:13;;;;;;;45.63;25.07;;;;;;;4.56;98.15;98635.03;4974015;28;20501;-66
2023/01/27 07:21:39;;;;;;;39.97;24.67;;;;;;;4.65;98.68;98641.03;4974223;28;20209;-64
2023/01/27 07:24:06;;;;;;;31.50;21.10;;;;;;;4.68;97.35;98640.66;4974891;28;20450;-65
2023/01/27 07:26:33;;;;;;;27.50;20.37;;;;;;;4.76;97.03;98644.06;4972792;28;20195;-65
2023/01/27 07:29:01;;;;;;;23.63;18.53;;;;;;;4.87;96.76;98646.22;4971768;28;20236;-67
2023/01/27 07:31:28;;;;;;;27.03;18.63;;;;;;;4.97;96.69;98649.41;4988135;28;20202;-66
2023/01/27 07:33:55;;;;;;;25.43;19.33;;;;;;;5.09;96.38;98647.13;4987359;28;20203;-64
2023/01/27 07:36:21;;;;;;;27.63;18.63;;;;;;;5.16;96.48;98643.59;4981676;28;20332;-64
2023/01/27 07:38:49;;;;;;;25.77;19.13;;;;;;;5.27;96.37;98643.13;4978666;28;20269;-62
2023/01/27 07:41:16;;;;;;;30.27;19.63;;;;;;;5.26;94.91;98649.41;4961307;28;20266;-62
2023/01/27 07:43:43;;;;;;;28.63;19.10;;;;;;;5.22;94.90;98642.88;4979297;28;20262;-61
2023/01/27 07:46:11;;;;;;;28.83;20.13;;;;;;;5.30;95.15;98634.88;4990783;28;20260;-61
2023/01/27 07:48:38;;;;;;;24.23;17.90;;;;;;;5.41;95.01;98642.31;4973284;28;20207;-63
2023/01/27 07:51:04;;;;;;;18.37;16.10;;;;;;;5.48;94.77;98631.84;4973222;28;20203;-61
2023/01/27 07:53:31;;;;;;;21.07;17.37;;;;;;;5.48;94.33;98630.00;4972824;28;20666;-62
2023/01/27 07:55:59;;;;;;;17.63;15.60;;;;;;;5.47;93.54;98631.03;4978168;28;20303;-64
2023/01/27 07:58:26;;;;;;;14.97;12.67;;;;;;;5.42;92.82;98628.13;4981865;28;20195;-64
2023/01/27 08:00:52;;;;;;;21.53;15.27;;;;;;;5.31;92.50;98636.50;4976120;28;20253;-64
2023/01/27 08:03:24;;;;;;;22.60;16.80;;;;;;;5.24;92.57;98629.53;4986828;28;21093;-66
2023/01/27 08:05:52;;;;;;;22.67;15.90;;;;;;;5.21;93.06;98630.72;4970646;28;20206;-65
2023/01/27 08:08:19;;;;;;;14.13;12.20;;;;;;;5.14;93.27;98627.16;4976493;28;20199;-63
2023/01/27 08:10:45;;;;;;;14.57;12.17;;;;;;;5.04;93.74;98631.91;4974215;28;20282;-63
2023/01/27 08:13:12;;;;;;;13.93;12.43;;;;;;;4.99;93.95;98636.88;4974997;28;20203;-64
2023/01/27 08:15:39;;;;;;;16.53;13.23;;;;;;;5.00;94.48;98632.44;4971418;28;20250;-63
2023/01/27 08:18:06;;;;;;;17.20;14.00;;;;;;;4.96;94.79;98632.00;4972632;28;20195;-64
2023/01/27 08:20:34;;;;;;;21.40;16.87;;;;;;;4.93;94.99;98627.09;4972875;28;20187;-65
2023/01/27 08:23:00;;;;;;;15.87;12.00;;;;;;;4.95;95.25;98622.44;4972650;28;20435;-66
2023/01/27 08:25:27;;;;;;;14.80;12.77;;;;;;;4.92;95.22;98612.31;4972929;28;20257;-65
2023/01/27 08:27:56;;;;;;;16.47;13.50;;;;;;;5.05;95.87;98604.59;4972882;28;20537;-65
2023/01/27 08:30:23;;;;;;;29.07;20.07;;;;;;;5.13;95.60;98601.03;4972889;28;20500;-65
2023/01/27 08:32:50;;;;;;;40.07;25.43;;;;;;;5.10;95.59;98591.69;4972656;28;20250;-63
2023/01/27 08:35:17;;;;;;;27.10;19.63;;;;;;;5.25;95.95;98583.78;4971294;28;20214;-64
2023/01/27 08:37:46;;;;;;;28.17;20.70;;;;;;;5.41;96.25;98579.13;4972295;28;20195;-63
2023/01/27 08:40:14;;;;;;;38.93;20.97;;;;;;;5.59;94.71;98576.88;4972757;28;20215;-64
2023/01/27 08:42:40;;;;;;;29.67;17.07;;;;;;;5.59;93.98;98583.94;4972045;28;20639;-65
2023/01/27 08:45:08;;;;;;;28.87;18.17;;;;;;;5.43;93.73;98589.44;4972099;28;20278;-66
2023/01/27 08:47:35;;;;;;;20.50;16.50;;;;;;;5.31;94.21;98590.94;4968683;28;20278;-65
2023/01/27 08:50:02;;;;;;;19.80;14.40;;;;;;;5.31;94.59;98594.38;4972457;28;20194;-63
2023/01/27 08:52:29;;;;;;;14.60;13.10;;;;;;;5.26;94.55;98594.13;4972441;28;20195;-65
2023/01/27 08:54:58;;;;;;;22.73;16.57;;;;;;;5.22;94.73;98595.50;4971674;28;20289;-64
2023/01/27 08:57:24;;;;;;;24.40;18.37;;;;;;;5.09;94.96;98597.97;4973808;28;20773;-64
2023/01/27 08:59:51;;;;;;;16.77;14.27;;;;;;;4.99;95.72;98605.31;4974034;28;20266;-63
2023/01/27 09:02:19;;;;;;;21.60;15.77;;;;;;;4.96;95.50;98603.06;4972361;28;20885;-63
2023/01/27 09:04:46;;;;;;;14.07;12.57;;;;;;;4.88;95.77;98605.78;4972342;28;20199;-64
2023/01/27 09:07:12;;;;;;;18.50;14.93;;;;;;;4.86;96.17;98599.06;4972950;28;20191;-64
2023/01/27 09:09:39;;;;;;;18.43;14.33;;;;;;;4.90;96.86;98601.13;4976422;28;20207;-65
2023/01/27 09:12:07;;;;;;;28.40;20.87;;;;;;;4.94;96.88;98597.16;4970618;28;20202;-65
2023/01/27 09:14:34;;;;;;;33.10;20.57;;;;;;;4.97;97.05;98601.22;4976843;28;20628;-64
2023/01/27 09:17:01;;;;;;;47.10;25.63;;;;;;;5.00;96.90;98600.88;4978985;28;20226;-64
2023/01/27 09:19:27;;;;;;;33.70;21.57;;;;;;;5.00;97.48;98596.44;4976294;28;20250;-65
2023/01/27 09:21:54;;;;;;;17.80;13.33;;;;;;;5.14;97.57;98590.31;4981112;28;20199;-64
2023/01/27 09:24:21;;;;;;;48.00;32.10;;;;;;;5.27;96.92;98587.06;4976370;28;20618;-64
2023/01/27 09:26:48;;;;;;;13.77;12.20;;;;;;;5.37;96.65;98588.38;4975862;28;20195;-63
2023/01/27 09:29:16;;;;;;;13.93;12.23;;;;;;;5.53;95.85;98577.63;4976989;28;20195;-65
2023/01/27 09:31:42;;;;;;;16.07;13.57;;;;;;;5.62;95.28;98567.78;4981231;28;20266;-64
2023/01/27 09:34:09;;;;;;;15.67;13.90;;;;;;;5.61;94.33;98561.69;4976092;28;20203;-64
2023/01/27 09:36:43;;;;;;;17.37;13.10;;;;;;;5.66;94.62;98556.69;4975567;28;20714;-65
2023/01/27 09:39:11;;;;;;;15.20;13.07;;;;;;;5.76;93.91;98557.19;4970096;28;20648;-65
2023/01/27 09:41:59;;;;;;;17.33;14.53;;;;;;;5.85;93.75;98543.91;4975954;28;20191;-64
2023/01/27 09:44:51;;;;;;;23.20;17.10;;;;;;;6.03;92.34;98549.53;4975277;28;20242;-65
2023/01/27 09:47:42;;;;;;;25.53;17.77;;;;;;;6.20;92.30;98546.44;4962009;28;20195;-64
2023/01/27 09:50:28;;;;;;;16.70;13.40;;;;;;;6.34;91.64;98542.09;4974574;28;20644;-64
2023/01/27 09:53:18;;;;;;;14.27;12.77;;;;;;;6.42;90.80;98541.94;4971601;28;20186;-63
2023/01/27 09:55:52;;;;;;;12.50;11.30;;;;;;;6.33;90.78;98540.47;4970958;28;20258;-65
2023/01/27 09:58:28;;;;;;;12.80;11.60;;;;;;;6.23;89.74;98547.88;4976452;28;20233;-64
2023/01/27 10:01:06;;;;;;;12.07;10.97;;;;;;;6.27;90.20;98557.03;4972334;28;20183;-64
2023/01/27 10:03:54;;;;;;;12.77;11.47;;;;;;;6.29;90.79;98560.31;4975117;28;20187;-67
2023/01/27 10:06:38;;;;;;;15.90;14.20;;;;;;;6.15;90.35;98558.56;4969428;28;20614;-65
2023/01/27 10:09:34;;;;;;;20.00;15.23;;;;;;;6.11;91.17;98549.41;4974139;28;20195;-63
2023/01/27 10:12:12;;;;;;;16.57;14.77;;;;;;;6.28;92.07;98545.50;4974518;28;20194;-64
2023/01/27 10:14:48;;;;;;;16.90;14.00;;;;;;;6.38;91.44;98545.97;4974958;28;20191;-65
2023/01/27 10:17:31;;;;;;;17.73;15.00;;;;;;;6.41;90.66;98550.88;4972709;28;20700;-66
2023/01/27 10:20:18;;;;;;;22.70;19.23;;;;;;;6.23;90.64;98527.59;4973187;28;20283;-65
2023/01/27 10:22:53;;;;;;;23.93;17.93;;;;;;;6.26;91.30;98536.94;4967080;28;20198;-64
2023/01/27 10:25:34;;;;;;;18.80;15.63;;;;;;;6.32;92.03;98537.00;4974567;28;20191;-63
2023/01/27 10:28:10;;;;;;;20.17;13.90;;;;;;;6.28;91.60;98529.69;4971339;28;20203;-64
2023/01/27 10:30:41;;;;;;;20.37;14.30;;;;;;;6.24;92.08;98517.88;4979540;28;20295;-62
2023/01/27 10:33:17;;;;;;;22.90;15.03;;;;;;;6.20;91.72;98517.44;4974878;28;20187;-62
2023/01/27 10:35:51;;;;;;;22.97;15.60;;;;;;;6.23;92.43;98510.97;4974621;28;20561;-63
2023/01/27 10:38:26;;;;;;;27.00;16.97;;;;;;;6.35;92.05;98507.63;4974728;28;20183;-64
2023/01/27 10:41:02;;;;;;;25.00;17.33;;;;;;;6.27;91.26;98507.75;4977205;28;20275;-63
2023/01/27 10:43:38;;;;;;;26.87;19.47;;;;;;;6.23;92.97;98497.78;4974278;28;20187;-63
2023/01/27 10:46:13;;;;;;;22.67;16.40;;;;;;;6.26;92.52;98494.75;4972087;28;20194;-63
2023/01/27 10:48:50;;;;;;;27.57;17.17;;;;;;;6.38;94.47;98485.31;4975693;28;20741;-64
2023/01/27 10:51:21;;;;;;;21.07;16.67;;;;;;;6.53;93.39;98489.44;4969095;28;20190;-65
2023/01/27 10:53:56;;;;;;;23.90;16.90;;;;;;;6.48;92.62;98481.31;4974336;28;20217;-64
2023/01/27 10:56:32;;;;;;;25.27;16.83;;;;;;;6.57;92.49;98481.97;4973606;28;20659;-65
2023/01/27 10:59:05;;;;;;;18.00;13.57;;;;;;;6.72;92.03;98477.38;4977418;28;20191;-64
2023/01/27 11:01:37;;;;;;;19.77;14.60;;;;;;;6.80;91.37;98479.84;4973596;28;20231;-64
2023/01/27 11:04:13;;;;;;;21.03;16.33;;;;;;;6.86;90.22;98476.44;4973499;28;20188;-66
2023/01/27 11:06:42;;;;;;;21.70;14.87;;;;;;;6.80;90.13;98472.75;4982901;28;20205;-65
2023/01/27 11:09:17;;;;;;;24.07;15.23;;;;;;;6.91;90.23;98458.16;4973905;28;20630;-65
2023/01/27 11:11:45;;;;;;;20.97;15.70;;;;;;;6.79;89.66;98457.09;4973802;28;20189;-65
2023/01/27 11:14:17;;;;;;;21.27;15.97;;;;;;;6.90;89.96;98441.50;4973589;28;20191;-64
2023/01/27 11:16:49;;;;;;;28.17;14.43;;;;;;;7.08;89.89;98439.13;4968017;28;20669;-63
2023/01/27 11:19:28;;;;;;;18.53;13.20;;;;;;;7.25;90.28;98439.56;4977006;28;20218;-64
2023/01/27 11:21:56;;;;;;;15.87;11.70;;;;;;;7.36;88.24;98446.91;4981009;28;20180;-64
2023/01/27 11:24:34;;;;;;;12.87;10.53;;;;;;;7.43;88.70;98447.75;4978189;28;20195;-65
2023/01/27 11:27:12;;;;;;;12.63;10.83;;;;;;;7.40;88.12;98454.25;4982445;28;20249;-64
2023/01/27 11:29:42;;;;;;;13.53;10.80;;;;;;;7.27;87.81;98459.47;4965243;28;20218;-64
2023/01/27 11:32:21;;;;;;;14.20;9.90;;;;;;;6.99;88.81;98465.91;4973093;28;20189;-65
2023/01/27 11:34:59;;;;;;;13.67;11.63;;;;;;;6.98;88.62;98461.66;4972048;28;20667;-64
2023/01/27 11:37:32;;;;;;;12.67;11.40;;;;;;;7.00;90.05;98460.44;4976590;28;20706;-66
2023/01/27 11:39:59;;;;;;;14.70;12.70;;;;;;;6.96;90.18;98467.13;4988739;28;20190;-68
2023/01/27 11:42:30;;;;;;;18.37;13.00;;;;;;;6.96;90.08;98455.75;4972271;28;20663;-65
2023/01/27 11:44:58;;;;;;;17.87;11.97;;;;;;;6.87;91.53;98454.28;4972885;28;20729;-65
2023/01/27 11:47:29;;;;;;;12.23;11.03;;;;;;;6.86;91.49;98442.91;4973421;28;20203;-64
2023/01/27 11:49:59;;;;;;;10.37;9.07;;;;;;;6.80;91.43;98440.25;4972391;28;20279;-65
2023/01/27 11:52:28;;;;;;;12.97;9.70;;;;;;;6.91;91.65;98439.69;4975831;28;20191;-64
2023/01/27 11:55:03;;;;;;;11.17;10.03;;;;;;;6.90;91.86;98443.34;4976128;28;20218;-64
2023/01/27 11:57:30;;;;;;;12.73;10.00;;;;;;;6.99;91.49;98435.06;4972978;28;20206;-63
2023/01/27 12:00:00;;;;;;;9.50;8.53;;;;;;;7.02;90.15;98439.13;4978046;28;20663;-63
2023/01/27 12:02:35;;;;;;;11.80;9.90;;;;;;;7.05;90.64;98433.44;4976398;28;20254;-64
2023/01/27 12:05:08;;;;;;;13.10;9.70;;;;;;;7.00;90.34;98438.50;4986329;28;20186;-64